Time;durP1;ratioP1;P1;durP2;ratioP2;P2;SDS_P1;SDS_P2;PMS_P1;PMS_P2;Temp;Humidity;BMP_temperature;BMP_pressure;BME280_temperature;BME280_humidity;BME280_pressure;Samples;Min_cycle;Max_cycle;Signal;HPM_P1;HPM_P2
2021/05/22 00:01:41;;;;;;;0.57;0.52;;;;;;;11.93;78.62;99685.34;5033902;28;20418;-66
2021/05/22 00:04:25;;;;;;;2.53;1.08;;;;;;;11.91;78.65;99678.50;5033846;28;20091;-65
2021/05/22 00:07:09;;;;;;;2.55;0.93;;;;;;;11.87;78.84;99675.31;5034408;28;20109;-66
2021/05/22 00:09:53;;;;;;;5.38;1.10;;;;;;;11.86;78.40;99681.66;5033842;28;20096;-65
2021/05/22 00:12:42;;;;;;;2.50;0.95;;;;;;;11.88;77.94;99673.50;5033587;28;20142;-65
2021/05/22 00:15:26;;;;;;;7.50;1.27;;;;;;;11.67;82.30;99670.50;5033209;28;20052;-64
2021/05/22 00:18:11;;;;;;;2.53;1.05;;;;;;;11.36;84.59;99680.88;5034426;28;20091;-64
2021/05/22 00:20:57;;;;;;;5.68;1.17;;;;;;;11.07;92.70;99684.97;5034452;28;20051;-63
2021/05/22 00:23:42;;;;;;;4.07;1.20;;;;;;;10.72;99.06;99686.00;5034423;28;20163;-62
2021/05/22 00:26:26;;;;;;;3.60;1.40;;;;;;;10.52;100.00;99697.88;5033116;28;20055;-63
2021/05/22 00:29:10;;;;;;;3.00;1.23;;;;;;;10.35;100.00;99714.75;5019315;28;20127;-63
2021/05/22 00:31:53;;;;;;;2.63;1.48;;;;;;;10.27;100.00;99721.84;5033313;28;20075;-62
2021/05/22 00:34:37;;;;;;;6.95;1.88;;;;;;;10.10;100.00;99725.38;5033037;28;20068;-62
2021/05/22 00:37:21;;;;;;;5.22;1.50;;;;;;;10.03;100.00;99742.97;5019159;28;20052;-62
2021/05/22 00:40:06;;;;;;;2.88;1.50;;;;;;;9.99;100.00;99738.88;5019463;28;20103;-61
2021/05/22 00:42:50;;;;;;;4.38;1.83;;;;;;;9.93;100.00;99754.66;5033629;28;20461;-61
2021/05/22 00:45:35;;;;;;;3.65;1.73;;;;;;;9.82;100.00;99736.25;5032776;28;20176;-61
2021/05/22 00:48:19;;;;;;;5.90;1.88;;;;;;;9.81;100.00;99750.53;5033624;28;20044;-62
2021/05/22 00:51:04;;;;;;;4.20;2.00;;;;;;;9.79;100.00;99745.34;5018992;28;20414;-62
2021/05/22 00:53:47;;;;;;;;;;;;;;;9.81;100.00;99739.91;5032956;28;20119;-62
2021/05/22 00:56:32;;;;;;;5.70;1.77;;;;;;;9.80;100.00;99735.56;5033893;28;19920;-61
2021/05/22 00:59:18;;;;;;;5.30;1.75;;;;;;;9.81;100.00;99723.91;5033802;28;20064;-62
2021/05/22 01:02:02;;;;;;;3.38;1.52;;;;;;;9.77;100.00;99727.88;5033719;28;20140;-63
2021/05/22 01:04:46;;;;;;;5.32;2.03;;;;;;;9.71;100.00;99741.78;5032753;28;20140;-63
2021/05/22 01:07:30;;;;;;;5.93;1.70;;;;;;;9.74;100.00;99736.16;5018592;28;20558;-63
2021/05/22 01:10:14;;;;;;;3.25;1.60;;;;;;;9.68;100.00;99734.13;5032760;28;20047;-62
2021/05/22 01:12:58;;;;;;;3.03;1.52;;;;;;;9.59;100.00;99735.03;5032888;28;20048;-62
2021/05/22 01:15:44;;;;;;;4.97;1.40;;;;;;;9.55;100.00;99720.31;5018320;28;20052;-63
2021/05/22 01:18:30;;;;;;;3.67;1.77;;;;;;;9.38;100.00;99721.16;5032397;28;20056;-62
2021/05/22 01:21:15;;;;;;;2.80;1.40;;;;;;;9.36;100.00;99728.47;5032295;28;20106;-63
2021/05/22 01:24:05;;;;;;;3.17;1.20;;;;;;;9.28;100.00;99720.38;5032281;28;20091;-63
2021/05/22 01:26:50;;;;;;;1.73;1.20;;;;;;;9.18;100.00;99724.91;5018536;28;20099;-63
2021/05/22 01:29:35;;;;;;;4.30;1.30;;;;;;;9.19;100.00;99715.97;5032218;28;20056;-62
2021/05/22 01:32:18;;;;;;;4.97;1.63;;;;;;;9.15;100.00;99719.91;5032410;28;20053;-63
2021/05/22 01:35:03;;;;;;;4.72;1.42;;;;;;;9.10;100.00;99706.22;5033177;28;20045;-63
2021/05/22 01:37:47;;;;;;;4.18;1.58;;;;;;;9.04;100.00;99722.75;5018223;28;20520;-62
2021/05/22 01:40:31;;;;;;;4.53;1.60;;;;;;;9.00;100.00;99722.22;5033339;28;20048;-63
2021/05/22 01:43:15;;;;;;;4.70;1.40;;;;;;;8.94;100.00;99713.97;5032094;28;20429;-61
2021/05/22 01:45:59;;;;;;;;;;;;;;;8.87;100.00;99723.53;5032964;28;20403;-63
2021/05/22 01:48:44;;;;;;;2.90;1.43;;;;;;;8.84;100.00;99721.16;5032054;28;20007;-63
2021/05/22 01:51:28;;;;;;;2.50;1.42;;;;;;;8.80;100.00;99719.78;5032229;28;20051;-62
2021/05/22 01:54:12;;;;;;;4.35;1.58;;;;;;;8.76;100.00;99719.22;5032147;28;20056;-61
2021/05/22 01:56:57;;;;;;;2.90;1.83;;;;;;;8.72;100.00;99727.63;5034922;28;20524;-63
2021/05/22 01:59:41;;;;;;;4.75;1.73;;;;;;;8.69;100.00;99719.97;5036181;28;20472;-62
2021/05/22 02:02:25;;;;;;;4.68;1.45;;;;;;;8.65;100.00;99716.75;5022156;28;20088;-63
2021/05/22 02:05:09;;;;;;;5.05;1.70;;;;;;;8.62;100.00;99722.38;5035787;28;20076;-63
2021/05/22 02:07:56;;;;;;;4.38;1.63;;;;;;;8.57;100.00;99726.44;5037049;28;20048;-62
2021/05/22 02:10:40;;;;;;;2.90;1.42;;;;;;;8.55;100.00;99715.13;5035896;28;20095;-63
2021/05/22 02:13:24;;;;;;;3.30;1.50;;;;;;;8.51;100.00;99711.94;5021916;28;20160;-63
2021/05/22 02:16:09;;;;;;;5.13;1.83;;;;;;;8.50;100.00;99714.72;5036581;28;20095;-63
2021/05/22 02:18:54;;;;;;;3.38;1.85;;;;;;;8.49;100.00;99715.69;5035708;28;20044;-63
2021/05/22 02:21:40;;;;;;;5.78;1.40;;;;;;;8.44;100.00;99710.00;5035756;28;20132;-63
2021/05/22 02:24:25;;;;;;;4.47;1.95;;;;;;;8.46;100.00;99705.38;5035732;28;20095;-63
2021/05/22 02:27:11;;;;;;;5.32;1.95;;;;;;;8.48;100.00;99706.06;5036542;28;20053;-64
2021/05/22 02:29:55;;;;;;;4.28;1.63;;;;;;;8.44;100.00;99697.53;5035823;28;20111;-63
2021/05/22 02:32:40;;;;;;;4.63;1.55;;;;;;;8.43;100.00;99695.00;5035577;28;20045;-63
2021/05/22 02:35:25;;;;;;;8.70;2.00;;;;;;;8.42;100.00;99690.69;5035159;28;20095;-63
2021/05/22 02:38:13;;;;;;;4.00;1.80;;;;;;;8.43;100.00;99700.31;5021359;28;20129;-63
2021/05/22 02:41:00;;;;;;;8.00;2.13;;;;;;;8.43;100.00;99702.97;5036196;28;20479;-64
2021/05/22 02:43:48;;;;;;;4.07;1.75;;;;;;;8.47;100.00;99707.03;5035336;28;20504;-63
2021/05/22 02:46:36;;;;;;;1.55;0.95;;;;;;;8.46;100.00;99690.25;5035309;28;20049;-63
2021/05/22 02:49:26;;;;;;;2.13;1.65;;;;;;;8.48;100.00;99690.97;5035058;28;20068;-63
2021/05/22 02:52:13;;;;;;;5.05;1.75;;;;;;;8.50;100.00;99696.97;5035207;28;20044;-63
2021/05/22 02:54:59;;;;;;;5.47;1.90;;;;;;;8.50;100.00;99709.41;5035077;28;20048;-63
2021/05/22 02:57:43;;;;;;;6.15;1.92;;;;;;;8.49;100.00;99715.69;5037219;28;20072;-65
2021/05/22 03:00:27;;;;;;;3.67;1.70;;;;;;;8.50;100.00;99706.75;5035068;28;20103;-65
2021/05/22 03:03:11;;;;;;;3.20;2.30;;;;;;;8.47;100.00;99685.78;5035248;28;20572;-64
2021/05/22 03:05:58;;;;;;;4.32;2.60;;;;;;;8.49;100.00;99691.78;5020870;28;20087;-65
2021/05/22 03:08:47;;;;;;;4.93;1.95;;;;;;;8.50;100.00;99690.81;5034550;28;20084;-64
2021/05/22 03:11:31;;;;;;;6.43;1.80;;;;;;;8.46;100.00;99689.44;5034469;28;20080;-64
2021/05/22 03:14:15;;;;;;;4.97;2.10;;;;;;;8.48;100.00;99692.78;5035738;28;20060;-64
2021/05/22 03:16:59;;;;;;;4.97;2.20;;;;;;;8.51;100.00;99682.69;5034405;28;20052;-65
2021/05/22 03:19:43;;;;;;;;;;;;;;;8.52;100.00;99691.50;5035831;28;20095;-64
2021/05/22 03:22:27;;;;;;;4.80;1.90;;;;;;;8.52;100.00;99695.00;5035648;28;19920;-61
2021/05/22 03:25:12;;;;;;;2.35;0.95;;;;;;;8.55;100.00;99689.38;5020786;28;20071;-65
2021/05/22 03:27:57;;;;;;;3.25;1.45;;;;;;;8.56;100.00;99683.09;5034224;28;20136;-65
2021/05/22 03:30:41;;;;;;;7.18;2.35;;;;;;;8.55;100.00;99686.72;5035186;28;20072;-65
2021/05/22 03:33:25;;;;;;;1.98;1.40;;;;;;;8.55;100.00;99683.25;5034283;28;20052;-64
2021/05/22 03:36:09;;;;;;;2.97;1.60;;;;;;;8.56;100.00;99683.09;5020641;28;20146;-65
2021/05/22 03:38:53;;;;;;;4.43;1.85;;;;;;;8.55;100.00;99688.56;5034272;28;20551;-65
2021/05/22 03:41:37;;;;;;;9.57;1.98;;;;;;;8.56;100.00;99688.41;5035188;28;20064;-65
2021/05/22 03:44:21;;;;;;;4.15;1.85;;;;;;;8.58;100.00;99694.41;5034277;28;20048;-65
2021/05/22 03:47:04;;;;;;;3.72;2.05;;;;;;;8.59;100.00;99692.59;5034113;28;20095;-66
2021/05/22 03:49:49;;;;;;;5.65;2.15;;;;;;;8.65;100.00;99695.50;5034848;28;20095;-65
2021/05/22 03:52:33;;;;;;;8.35;2.28;;;;;;;8.67;100.00;99698.84;5034078;28;20501;-65
2021/05/22 03:55:17;;;;;;;5.55;1.90;;;;;;;8.70;100.00;99708.34;5033975;28;20414;-65
2021/05/22 03:58:01;;;;;;;8.10;1.63;;;;;;;8.71;100.00;99705.56;5033692;28;20481;-65
2021/05/22 04:00:45;;;;;;;6.38;1.48;;;;;;;8.70;100.00;99713.66;5033704;28;20171;-65
2021/05/22 04:03:29;;;;;;;5.40;1.52;;;;;;;8.70;100.00;99718.97;5033894;28;20052;-66
2021/05/22 04:06:13;;;;;;;5.72;2.13;;;;;;;8.68;100.00;99720.94;5034856;28;20130;-66
2021/05/22 04:08:57;;;;;;;2.58;1.63;;;;;;;8.66;100.00;99731.72;5033567;28;20427;-65
2021/05/22 04:11:41;;;;;;;3.50;1.50;;;;;;;8.63;100.00;99724.03;5033720;28;20477;-66
2021/05/22 04:14:24;;;;;;;5.20;2.58;;;;;;;8.61;100.00;99726.00;5033548;28;20414;-65
2021/05/22 04:17:08;;;;;;;7.47;1.80;;;;;;;8.60;100.00;99724.34;5034511;28;20465;-65
2021/05/22 04:19:52;;;;;;;2.40;1.50;;;;;;;8.59;100.00;99733.28;5033907;28;20056;-65
2021/05/22 04:22:36;;;;;;;9.38;2.30;;;;;;;8.54;100.00;99732.88;5033485;28;20095;-65
2021/05/22 04:25:20;;;;;;;5.05;1.75;;;;;;;8.59;100.00;99733.28;5033182;28;20047;-65
2021/05/22 04:28:04;;;;;;;3.65;1.58;;;;;;;8.56;100.00;99743.38;5033518;28;20064;-65
2021/05/22 04:30:48;;;;;;;3.90;1.55;;;;;;;8.55;100.00;99754.97;5033139;28;20201;-64
2021/05/22 04:33:32;;;;;;;5.82;1.92;;;;;;;8.58;100.00;99747.53;5019560;28;20064;-66
2021/05/22 04:36:16;;;;;;;4.22;2.22;;;;;;;8.57;100.00;99755.66;5033286;28;20111;-65
2021/05/22 04:39:00;;;;;;;6.30;2.13;;;;;;;8.58;100.00;99752.84;5033867;28;20049;-65
2021/05/22 04:41:44;;;;;;;8.90;1.80;;;;;;;8.60;100.00;99755.38;5033445;28;20095;-65
2021/05/22 04:44:28;;;;;;;3.65;1.98;;;;;;;8.62;100.00;99754.25;5034197;28;20044;-66
2021/05/22 04:47:12;;;;;;;2.85;1.45;;;;;;;8.61;100.00;99754.38;5033816;28;20055;-66
2021/05/22 04:49:56;;;;;;;4.38;1.63;;;;;;;8.64;100.00;99756.78;5034009;28;20059;-66
2021/05/22 04:52:40;;;;;;;3.58;1.80;;;;;;;8.65;100.00;99759.28;5019089;28;20088;-66
2021/05/22 04:55:24;;;;;;;3.97;1.88;;;;;;;8.68;100.00;99761.63;5018932;28;20061;-66
2021/05/22 04:58:08;;;;;;;4.00;1.75;;;;;;;8.70;100.00;99762.34;5032536;28;20048;-66
2021/05/22 05:00:52;;;;;;;4.95;1.50;;;;;;;8.77;100.00;99775.91;5033100;28;20048;-65
2021/05/22 05:03:36;;;;;;;6.72;1.60;;;;;;;8.85;100.00;99760.06;5033540;28;20430;-66
2021/05/22 05:06:20;;;;;;;3.10;1.70;;;;;;;8.90;100.00;99763.97;5033640;28;20413;-66
2021/05/22 05:09:07;;;;;;;4.60;2.03;;;;;;;8.99;100.00;99762.22;5032346;28;20139;-66
2021/05/22 05:11:51;;;;;;;1.90;1.25;;;;;;;9.10;100.00;99770.88;5033726;28;20076;-66
2021/05/22 05:14:35;;;;;;;3.20;1.67;;;;;;;9.20;100.00;99768.16;5018495;28;20091;-66
2021/05/22 05:17:19;;;;;;;7.63;1.80;;;;;;;9.24;100.00;99761.53;5018566;28;20056;-65
2021/05/22 05:20:04;;;;;;;8.05;1.42;;;;;;;9.33;100.00;99765.97;5018661;28;20102;-66
2021/05/22 05:22:50;;;;;;;1.88;1.35;;;;;;;9.36;100.00;99755.06;5032277;28;20049;-66
2021/05/22 05:25:35;;;;;;;4.85;1.45;;;;;;;9.44;100.00;99755.97;5032941;28;20092;-66
2021/05/22 05:28:20;;;;;;;5.85;1.30;;;;;;;9.52;100.00;99763.22;5018485;28;20052;-66
2021/05/22 05:31:04;;;;;;;2.58;1.40;;;;;;;9.63;100.00;99768.31;5033108;28;20123;-66
2021/05/22 05:33:48;;;;;;;4.85;1.33;;;;;;;9.70;100.00;99759.56;5032053;28;20052;-65
2021/05/22 05:36:33;;;;;;;4.70;1.70;;;;;;;9.76;100.00;99768.78;5033642;28;20091;-66
2021/05/22 05:39:17;;;;;;;6.13;1.70;;;;;;;9.89;100.00;99759.44;5032108;28;20044;-66
2021/05/22 05:42:01;;;;;;;2.25;1.50;;;;;;;10.03;100.00;99766.09;5032135;28;20095;-66
2021/05/22 05:44:45;;;;;;;4.97;1.48;;;;;;;10.15;100.00;99764.84;5032047;28;20115;-66
2021/05/22 05:47:29;;;;;;;4.95;1.85;;;;;;;10.20;100.00;99762.59;5032264;28;20047;-66
2021/05/22 05:50:13;;;;;;;4.38;1.45;;;;;;;10.30;100.00;99765.00;5018322;28;20421;-66
2021/05/22 05:52:57;;;;;;;3.03;0.90;;;;;;;10.44;100.00;99756.44;5018264;28;20124;-66
2021/05/22 05:55:41;;;;;;;5.70;1.55;;;;;;;10.54;100.00;99781.16;5032143;28;20084;-66
2021/05/22 05:58:25;;;;;;;3.25;1.27;;;;;;;10.68;99.04;99772.63;5032006;28;20048;-65
2021/05/22 06:01:13;;;;;;;8.80;1.58;;;;;;;10.77;97.25;99776.97;5032159;28;20096;-66
2021/05/22 06:03:57;;;;;;;6.63;1.63;;;;;;;10.90;96.42;99774.75;5031898;28;20080;-66
2021/05/22 06:06:41;;;;;;;5.70;1.55;;;;;;;10.96;97.51;99773.28;5032809;28;20087;-66
2021/05/22 06:09:25;;;;;;;5.97;1.40;;;;;;;11.05;95.11;99791.81;5018164;28;20052;-66
2021/05/22 06:12:09;;;;;;;3.40;1.10;;;;;;;11.19;93.63;99775.25;5032797;28;20052;-66
2021/05/22 06:14:57;;;;;;;6.75;1.30;;;;;;;11.28;90.61;99782.25;5017719;28;20137;-66
2021/05/22 06:17:44;;;;;;;7.32;1.27;;;;;;;11.38;88.18;99774.97;5031654;28;20098;-66
2021/05/22 06:20:28;;;;;;;5.47;1.42;;;;;;;11.46;88.30;99769.66;5031897;28;20461;-66
2021/05/22 06:23:12;;;;;;;2.15;0.80;;;;;;;11.58;85.96;99776.41;5032952;28;20103;-66
2021/05/22 06:25:58;;;;;;;3.33;1.33;;;;;;;11.66;82.94;99768.41;5032643;28;20134;-66
2021/05/22 06:28:42;;;;;;;5.20;1.30;;;;;;;11.72;83.49;99774.94;5031876;28;20140;-66
2021/05/22 06:31:26;;;;;;;7.60;1.35;;;;;;;11.85;82.67;99767.28;5032117;28;20056;-67
2021/05/22 06:34:10;;;;;;;4.28;1.00;;;;;;;11.96;78.99;99777.66;5031689;28;20512;-66
2021/05/22 06:36:54;;;;;;;7.15;1.60;;;;;;;12.02;80.42;99769.84;5032749;28;20064;-66
2021/05/22 06:39:38;;;;;;;10.18;1.92;;;;;;;12.13;79.13;99769.50;5032776;28;20124;-66
2021/05/22 06:42:22;;;;;;;5.85;1.40;;;;;;;12.21;79.09;99776.69;5019831;28;20056;-66
2021/05/22 06:45:10;;;;;;;5.60;1.85;;;;;;;12.30;79.09;99765.81;5036083;28;20140;-66
2021/05/22 06:47:54;;;;;;;4.32;0.80;;;;;;;12.39;76.14;99761.34;5034983;28;20136;-65
2021/05/22 06:50:40;;;;;;;6.10;1.40;;;;;;;12.44;77.13;99765.16;5036217;28;20048;-67
2021/05/22 06:53:24;;;;;;;4.47;1.27;;;;;;;12.50;76.32;99769.81;5035149;28;20044;-67
2021/05/22 06:56:08;;;;;;;6.10;1.08;;;;;;;12.56;74.00;99766.50;5036228;28;20040;-66
2021/05/22 06:58:52;;;;;;;3.63;1.25;;;;;;;12.59;74.57;99768.81;5034744;28;20052;-66
2021/05/22 07:01:36;;;;;;;6.05;1.55;;;;;;;12.72;75.87;99779.00;5021028;28;20160;-67
2021/05/22 07:04:19;;;;;;;4.57;1.45;;;;;;;12.85;71.87;99799.72;5021257;28;20171;-67
2021/05/22 07:07:05;;;;;;;6.68;1.73;;;;;;;13.04;74.68;99763.75;5034940;28;20088;-67
2021/05/22 07:09:49;;;;;;;1.42;1.10;;;;;;;13.12;71.10;99782.44;5034924;28;20449;-66
2021/05/22 07:12:33;;;;;;;7.10;1.58;;;;;;;13.26;71.82;99789.78;5020683;28;20044;-67
2021/05/22 07:15:17;;;;;;;5.28;1.10;;;;;;;13.41;67.59;99780.00;5035717;28;20084;-67
2021/05/22 07:18:02;;;;;;;2.63;1.10;;;;;;;13.36;67.36;99780.53;5034456;28;20056;-67
2021/05/22 07:20:46;;;;;;;4.05;1.48;;;;;;;13.35;67.52;99794.91;5020761;28;20521;-67
2021/05/22 07:23:30;;;;;;;5.93;1.30;;;;;;;13.40;66.74;99770.31;5035601;28;20052;-67
2021/05/22 07:26:13;;;;;;;5.97;2.20;;;;;;;13.40;64.84;99807.78;5020844;28;20500;-66
2021/05/22 07:28:57;;;;;;;2.67;1.10;;;;;;;13.40;66.24;99791.72;5033563;28;20056;-66
2021/05/22 07:31:43;;;;;;;4.32;1.20;;;;;;;13.36;66.26;99779.72;5019633;28;20107;-67
2021/05/22 07:34:27;;;;;;;6.32;1.33;;;;;;;13.52;66.96;99790.31;5033716;28;20128;-67
2021/05/22 07:37:11;;;;;;;3.85;0.98;;;;;;;13.63;61.65;99777.41;5033596;28;20118;-67
2021/05/22 07:39:57;;;;;;;6.38;1.40;;;;;;;13.91;61.19;99796.50;5019449;28;20516;-66
2021/05/22 07:42:47;;;;;;;4.22;1.10;;;;;;;14.02;60.90;99778.19;5033469;28;20095;-67
2021/05/22 07:45:31;;;;;;;8.82;1.35;;;;;;;14.11;60.41;99784.31;5033203;28;20052;-67
2021/05/22 07:48:15;;;;;;;2.55;0.75;;;;;;;14.17;57.63;99819.31;5034517;28;20068;-66
2021/05/22 07:50:59;;;;;;;5.88;1.23;;;;;;;14.08;57.80;99793.53;5033446;28;20084;-67
2021/05/22 07:53:43;;;;;;;3.35;0.70;;;;;;;14.08;53.60;99878.47;5032225;28;20059;-67
2021/05/22 07:56:26;;;;;;;1.92;0.65;;;;;;;14.10;53.95;99790.69;5033295;28;20052;-67
2021/05/22 07:59:10;;;;;;;2.17;0.80;;;;;;;14.09;52.29;99800.56;5033069;28;20044;-67
2021/05/22 08:01:54;;;;;;;3.45;0.77;;;;;;;13.92;49.97;99809.72;5033218;28;20048;-67
2021/05/22 08:04:38;;;;;;;1.98;0.77;;;;;;;13.95;51.91;99813.88;5034184;28;20059;-66
2021/05/22 08:07:22;;;;;;;2.17;0.85;;;;;;;13.87;51.38;99771.06;5033847;28;20060;-67
2021/05/22 08:10:08;;;;;;;4.22;1.00;;;;;;;13.82;52.18;99786.84;5033357;28;20057;-67
2021/05/22 08:12:52;;;;;;;2.63;1.13;;;;;;;14.08;52.04;99777.44;5032882;28;20096;-67
2021/05/22 08:15:37;;;;;;;1.25;0.85;;;;;;;14.13;50.39;99809.06;5032750;28;20079;-68
2021/05/22 08:18:21;;;;;;;5.63;1.17;;;;;;;14.23;50.42;99790.94;5032657;28;20059;-67
2021/05/22 08:21:06;;;;;;;7.22;1.70;;;;;;;14.21;50.90;99795.66;5032884;28;20560;-67
2021/05/22 08:23:51;;;;;;;5.50;1.30;;;;;;;14.27;52.02;99777.00;5018843;28;20080;-67
2021/05/22 08:26:37;;;;;;;3.78;1.02;;;;;;;14.43;50.62;99776.03;5033554;28;20063;-68
2021/05/22 08:29:21;;;;;;;8.60;1.10;;;;;;;14.63;50.21;99739.66;5032743;28;20056;-67
2021/05/22 08:32:06;;;;;;;6.28;1.17;;;;;;;14.72;51.83;99763.56;5032929;28;20049;-67
2021/05/22 08:34:50;;;;;;;3.50;1.10;;;;;;;14.92;52.39;99771.91;5032497;28;20044;-67
2021/05/22 08:37:35;;;;;;;2.63;1.10;;;;;;;14.93;51.18;99762.81;5018600;28;20048;-67
2021/05/22 08:40:19;;;;;;;5.55;1.17;;;;;;;15.08;52.17;99755.63;5033936;28;20084;-65
2021/05/22 08:43:03;;;;;;;3.90;1.00;;;;;;;15.22;50.48;99757.47;5032543;28;20052;-66
2021/05/22 08:45:47;;;;;;;2.95;1.13;;;;;;;15.23;50.61;99751.91;5033442;28;20152;-66
2021/05/22 08:48:31;;;;;;;6.10;1.20;;;;;;;15.17;46.99;99923.63;5031973;28;20052;-65
2021/05/22 08:51:19;;;;;;;3.15;0.95;;;;;;;15.15;47.17;99770.81;5032313;28;20125;-65
2021/05/22 08:54:03;;;;;;;5.20;1.20;;;;;;;15.25;49.03;99743.66;5033679;28;20080;-65
2021/05/22 08:56:47;;;;;;;5.15;1.20;;;;;;;15.57;49.20;99751.34;5031975;28;20056;-66
2021/05/22 08:59:31;;;;;;;5.47;0.90;;;;;;;15.70;49.76;99745.13;5032254;28;20103;-65
2021/05/22 09:02:18;;;;;;;2.40;0.90;;;;;;;15.91;46.88;99776.56;5032183;28;20410;-66
2021/05/22 09:05:20;;;;;;;1.50;0.90;;;;;;;15.77;46.77;99802.44;5032070;28;20124;-65
2021/05/22 09:08:07;;;;;;;4.10;0.70;;;;;;;15.40;46.31;99804.44;5032857;28;20044;-66
2021/05/22 09:10:53;;;;;;;4.30;0.80;;;;;;;15.34;46.45;99794.44;5018176;28;20052;-65
2021/05/22 09:13:37;;;;;;;1.35;0.68;;;;;;;15.42;46.23;99780.09;5032040;28;20052;-65
2021/05/22 09:16:34;;;;;;;3.75;1.10;;;;;;;15.61;48.12;99741.91;5018254;28;20061;-66
2021/05/22 09:19:27;;;;;;;5.20;1.27;;;;;;;15.78;47.45;99761.09;5031701;28;20052;-66
2021/05/22 09:22:24;;;;;;;7.18;1.08;;;;;;;15.98;46.63;99756.78;5017729;28;20154;-66
2021/05/22 09:25:10;;;;;;;3.63;1.20;;;;;;;16.22;46.70;99745.66;5031705;28;20075;-66
2021/05/22 09:27:55;;;;;;;2.25;1.00;;;;;;;16.54;48.01;99757.75;5031898;28;20516;-66
2021/05/22 09:30:41;;;;;;;4.88;1.10;;;;;;;16.62;45.81;99761.16;5031404;28;20051;-66
2021/05/22 09:33:34;;;;;;;3.80;1.17;;;;;;;16.61;47.54;99775.66;5031635;28;20095;-66
2021/05/22 09:36:18;;;;;;;6.88;1.30;;;;;;;16.78;44.82;99787.78;5031561;28;20075;-66
2021/05/22 09:39:03;;;;;;;5.78;1.17;;;;;;;16.40;43.45;99774.81;5017575;28;20099;-65
2021/05/22 09:41:48;;;;;;;2.92;0.98;;;;;;;16.47;43.40;99795.38;5031427;28;20111;-66
2021/05/22 09:44:33;;;;;;;3.33;1.05;;;;;;;16.50;43.97;99778.84;5031356;28;20111;-67
2021/05/22 09:47:17;;;;;;;4.70;0.90;;;;;;;16.48;43.98;99780.09;5017390;28;20430;-65
2021/05/22 09:50:01;;;;;;;3.53;1.00;;;;;;;16.74;42.03;99796.44;5031547;28;20107;-66
2021/05/22 09:52:44;;;;;;;5.18;1.63;;;;;;;16.69;42.09;99791.63;5032402;28;20051;-66
2021/05/22 09:55:28;;;;;;;5.00;1.05;;;;;;;16.64;43.15;99829.06;5031413;28;20151;-66
2021/05/22 09:58:12;;;;;;;4.50;1.17;;;;;;;16.63;43.54;99795.13;5032199;28;20174;-66
2021/05/22 10:00:58;;;;;;;1.55;0.90;;;;;;;16.94;41.02;99805.50;5017555;28;20045;-65
2021/05/22 10:03:42;;;;;;;4.25;1.05;;;;;;;16.80;42.09;99844.94;5031160;28;20099;-65
2021/05/22 10:06:42;;;;;;;6.72;1.35;;;;;;;17.15;41.02;99808.97;5031431;28;20052;-65
2021/05/22 10:09:28;;;;;;;7.32;1.25;;;;;;;16.95;40.69;99816.09;5032195;28;20060;-65
2021/05/22 10:12:15;;;;;;;5.28;1.00;;;;;;;17.34;40.27;99802.91;5018009;28;20616;-66
2021/05/22 10:14:59;;;;;;;9.48;1.20;;;;;;;18.07;39.23;99816.53;5017806;28;20052;-66
2021/05/22 10:17:43;;;;;;;1.88;1.05;;;;;;;18.47;37.88;99788.63;5035007;28;20098;-66
2021/05/22 10:20:28;;;;;;;2.88;0.82;;;;;;;19.22;37.76;99784.47;5036054;28;20048;-67
2021/05/22 10:23:12;;;;;;;2.42;1.13;;;;;;;20.89;34.16;99801.97;5037619;28;20044;-67
2021/05/22 10:25:58;;;;;;;4.85;1.10;;;;;;;20.40;33.86;99796.47;5035027;28;20048;-66
2021/05/22 10:28:42;;;;;;;2.83;1.00;;;;;;;19.76;33.32;99792.19;5034743;28;20052;-66
2021/05/22 10:31:27;;;;;;;3.22;0.93;;;;;;;20.66;31.72;99796.31;5020944;28;20114;-66
2021/05/22 10:34:16;;;;;;;4.72;0.85;;;;;;;21.77;29.14;99818.63;5034900;28;20041;-68
2021/05/22 10:37:00;;;;;;;2.05;0.90;;;;;;;20.96;30.10;99797.34;5034706;28;20100;-66
2021/05/22 10:39:45;;;;;;;1.38;0.55;;;;;;;21.56;28.14;99821.75;5034274;28;20048;-67
2021/05/22 10:42:32;;;;;;;2.38;0.85;;;;;;;20.80;29.05;99807.84;5034061;28;20182;-66
2021/05/22 10:45:28;;;;;;;2.63;1.00;;;;;;;21.20;28.80;99818.16;5033913;28;20099;-66
2021/05/22 10:48:15;;;;;;;7.32;0.80;;;;;;;20.24;31.00;99805.13;5034915;28;20513;-66
2021/05/22 10:50:59;;;;;;;1.48;0.70;;;;;;;20.86;28.77;99796.16;5034932;28;20545;-66
2021/05/22 10:53:53;;;;;;;3.15;0.80;;;;;;;20.63;30.21;99793.19;5034053;28;20554;-66
2021/05/22 10:56:59;;;;;;;3.42;1.02;;;;;;;21.87;28.93;99791.78;5019897;28;20409;-67
2021/05/22 11:00:15;;;;;;;5.03;1.13;;;;;;;22.65;28.16;99817.88;5033615;28;20047;-66
2021/05/22 11:03:10;;;;;;;2.15;0.80;;;;;;;22.65;28.45;99785.28;5035074;28;20059;-67
2021/05/22 11:05:54;;;;;;;4.30;1.02;;;;;;;22.21;28.88;99793.81;5033663;28;20048;-65
2021/05/22 11:08:39;;;;;;;1.88;0.90;;;;;;;21.20;29.32;99827.13;5019668;28;20055;-64
2021/05/22 11:11:32;;;;;;;2.03;1.00;;;;;;;22.10;27.76;99786.47;5033618;28;20051;-67
2021/05/22 11:15:01;;;;;;;2.83;1.40;;;;;;;22.44;28.44;99799.38;5033844;28;20057;-66
2021/05/22 11:17:49;;;;;;;2.15;0.90;;;;;;;22.90;27.88;99794.03;5035051;28;20064;-66
2021/05/22 11:20:34;;;;;;;1.90;0.80;;;;;;;23.28;26.56;99813.50;5034103;28;20059;-65
2021/05/22 11:23:18;;;;;;;2.63;0.70;;;;;;;22.13;28.10;99796.88;5035064;28;20115;-65
2021/05/22 11:26:02;;;;;;;2.08;0.95;;;;;;;22.25;28.29;99815.91;5034674;28;20140;-65
2021/05/22 11:28:52;;;;;;;2.90;0.90;;;;;;;22.33;28.58;99792.00;5034488;28;20060;-66
2021/05/22 11:31:36;;;;;;;7.05;0.80;;;;;;;23.15;28.52;99785.69;5033926;28;20060;-66
2021/05/22 11:34:19;;;;;;;5.38;1.00;;;;;;;23.85;27.19;99801.72;5033812;28;20068;-66
2021/05/22 11:37:09;;;;;;;4.97;1.05;;;;;;;24.20;25.61;99791.56;5034618;28;20083;-66
2021/05/22 11:39:53;;;;;;;2.28;0.88;;;;;;;24.98;25.56;99786.97;5033404;28;20049;-65
2021/05/22 11:42:37;;;;;;;;;;;;;;;22.83;28.92;99798.75;5035141;28;20041;-62
2021/05/22 11:45:21;;;;;;;3.90;1.33;;;;;;;23.64;26.92;99802.31;5033871;28;20369;-63
2021/05/22 11:48:21;;;;;;;;;;;;;;;23.22;28.58;99808.19;5034876;28;20470;-62
2021/05/22 11:51:20;;;;;;;2.50;0.73;;;;;;;20.26;31.98;99810.31;5034207;28;19960;-63
2021/05/22 11:54:10;;;;;;;2.65;1.00;;;;;;;22.14;31.46;99784.97;5033156;28;20125;-64
2021/05/22 11:56:54;;;;;;;2.95;1.05;;;;;;;23.04;28.42;99784.59;5033140;28;20056;-63
2021/05/22 11:59:38;;;;;;;3.55;1.23;;;;;;;24.45;28.19;99783.84;5033431;28;20052;-63
2021/05/22 12:02:40;;;;;;;5.25;0.90;;;;;;;24.41;26.97;99772.59;5034263;28;20045;-63
2021/05/22 12:05:24;;;;;;;1.17;0.65;;;;;;;23.08;27.83;99791.22;5033897;28;20049;-64
2021/05/22 12:08:20;;;;;;;1.52;0.55;;;;;;;21.84;29.29;99797.66;5033881;28;20049;-63
2021/05/22 12:11:16;;;;;;;4.30;0.70;;;;;;;21.02;29.99;99782.06;5032863;28;20120;-63
2021/05/22 12:14:04;;;;;;;1.40;0.70;;;;;;;20.07;32.04;99789.59;5033735;28;20128;-61
2021/05/22 12:16:58;;;;;;;5.70;0.70;;;;;;;19.55;33.51;99792.50;5032806;28;20056;-63
2021/05/22 12:19:45;;;;;;;1.65;0.50;;;;;;;20.68;34.06;99806.91;5032917;28;20406;-63
2021/05/22 12:22:31;;;;;;;2.85;0.98;;;;;;;20.29;33.91;99794.47;5033816;28;20044;-64
2021/05/22 12:25:16;;;;;;;2.50;0.73;;;;;;;19.57;35.18;99826.38;5033844;28;20051;-62
2021/05/22 12:28:00;;;;;;;3.30;0.80;;;;;;;20.77;33.88;99824.53;5032818;28;20084;-64
2021/05/22 12:30:45;;;;;;;3.03;0.77;;;;;;;23.28;30.94;99797.19;5032660;28;20055;-64
2021/05/22 12:33:29;;;;;;;2.75;0.82;;;;;;;23.67;30.53;99796.44;5032622;28;20103;-64
2021/05/22 12:36:13;;;;;;;2.53;0.70;;;;;;;22.52;32.03;99823.47;5032507;28;20072;-63
2021/05/22 12:38:57;;;;;;;3.92;0.80;;;;;;;21.03;36.08;99802.69;5018195;28;20057;-65
2021/05/22 12:41:40;;;;;;;3.80;0.70;;;;;;;20.44;36.13;99802.28;5032595;28;20187;-65
2021/05/22 12:44:24;;;;;;;2.15;0.80;;;;;;;20.38;37.93;99803.16;5032688;28;20107;-64
2021/05/22 12:47:08;;;;;;;;;;;;;;;19.80;38.90;99799.69;5033612;28;20409;-64
2021/05/22 12:50:03;;;;;;;1.67;0.77;;;;;;;19.83;39.41;99810.09;5033449;28;19958;-65
2021/05/22 12:52:51;;;;;;;0.93;0.65;;;;;;;19.81;38.87;99806.75;5033107;28;20064;-64
2021/05/22 12:55:36;;;;;;;4.10;0.77;;;;;;;20.30;39.30;99804.25;5033045;28;20053;-64
2021/05/22 12:58:22;;;;;;;3.97;0.63;;;;;;;20.49;33.82;99829.53;5032990;28;20111;-64
2021/05/22 13:01:19;;;;;;;1.42;0.60;;;;;;;20.89;33.08;99806.56;5033459;28;20107;-64